SARC/CNQ METAR and TAF weather

Enter ICAO airport designator
Station Type Date Time Source
SARC METAR 2021/01/17 19:00 UTC NOAA

SARC 171900Z 20018KT 7000 NSC 27/15 Q1010


Station Type Date Time Source
SARC Decoded METAR 2021/01/17 19:00 UTC NOAA

Corrientes Aero., Argentina (SARC) 27-27S 058-46W 62M
Jan 17, 2021 - 02:00 PM EST / 2021.01.17 1900 UTC
Wind: from the SSW (200 degrees) at 21 MPH (18 KT):0
Visibility: 4 mile(s):0
Temperature: 80 F (27 C)
Dew Point: 59 F (15 C)
Relative Humidity: 47%
Pressure (altimeter): 29.83 in. Hg (1010 hPa)
ob: SARC 171900Z 20018KT 7000 NSC 27/15 Q1010
cycle: 19

Station Type Date Time Source
SARC TAF 2021/01/16 10:13 UTC NOAA

TAF
AMD SARC 160900Z 1610/1706 VRB02KT CAVOK TX35/1619Z TN24/1610Z
BECMG 1614/1616 SCT030 FEW050CB OVC0650
TEMPO 1617/1623 5000 TSRA

Example: see airport list